Winedale's Hourly Summary for Sunday, July 8, 2018
Hour Temp
(f)
RH
(%)
Solar Rad.
(MJ/m2)
Rainfall
(in)
Wind
(mph)
7/8/2018 12:00 AM 73 96 0 0 0
7/8/2018 1:00 AM 73 97 0 0 0
7/8/2018 2:00 AM 73 98 0 0 0
7/8/2018 3:00 AM 72 98 0 0 0
7/8/2018 4:00 AM 72 98 0 0 0
7/8/2018 5:00 AM 71 98 0 0 0
7/8/2018 6:00 AM 72 99 0 0 0
7/8/2018 7:00 AM 72 99 0.01 0 0
7/8/2018 8:00 AM 72 99 0.29 0 0
7/8/2018 9:00 AM 74 95 0.83 0 0.01
7/8/2018 10:00 AM 78 74 1.47 0 0
7/8/2018 11:00 AM 81 73 1.39 0 0.01
7/8/2018 12:00 PM 81 71 1.28 0 0.02
7/8/2018 1:00 PM 83 60 1.98 0 0
7/8/2018 2:00 PM 85 56 2.46 0 0.1
7/8/2018 3:00 PM 86 58 3.02 0 0.25
7/8/2018 4:00 PM 85 57 2.47 0 2.83
7/8/2018 5:00 PM 76 72 0.65 0.01 3.96
7/8/2018 6:00 PM 75 93 0.25 0.01 1.44
7/8/2018 7:00 PM 76 92 0.41 0.01 1.11
7/8/2018 8:00 PM 77 89 0.38 0 1.69
7/8/2018 9:00 PM 77 93 0.03 0 0.37
7/8/2018 10:00 PM 76 97 0 0 0.03
7/8/2018 11:00 PM 75 95 0 0 0
Data Summary 76 85 16.92 0.03 0.49